createdAt,value
2019-05-30T00:00:36.798Z,1.90
2019-05-30T00:03:05.204Z,1.40
2019-05-30T00:05:33.584Z,2.47
2019-05-30T00:08:02.438Z,0.90
2019-05-30T00:10:42.882Z,1.37
2019-05-30T00:13:05.150Z,1.60
2019-05-30T00:15:36.650Z,1.70
2019-05-30T00:18:06.720Z,1.50
2019-05-30T00:20:38.094Z,2.97
2019-05-30T00:23:09.312Z,1.37
2019-05-30T00:25:41.411Z,1.37
2019-05-30T00:28:13.109Z,1.33
2019-05-30T00:30:46.093Z,2.00
2019-05-30T00:33:18.781Z,1.47
2019-05-30T00:35:48.691Z,1.43
2019-05-30T00:38:17.286Z,1.00
2019-05-30T00:40:50.283Z,1.37
2019-05-30T00:43:21.967Z,1.30
2019-05-30T00:45:56.128Z,1.43
2019-05-30T00:48:24.510Z,1.37
2019-05-30T00:50:56.363Z,1.53
2019-05-30T00:53:26.041Z,1.90
2019-05-30T00:55:58.413Z,1.53
2019-05-30T00:58:26.949Z,1.70
2019-05-30T01:00:56.695Z,1.83
2019-05-30T01:03:28.714Z,1.40
2019-05-30T01:06:00.826Z,1.70
2019-05-30T01:08:29.221Z,1.60
2019-05-30T01:11:01.070Z,1.60
2019-05-30T01:13:31.297Z,1.73
2019-05-30T01:16:00.967Z,1.37
2019-05-30T01:18:32.294Z,1.67
2019-05-30T01:21:03.264Z,1.47
2019-05-30T01:23:39.813Z,1.80
2019-05-30T01:26:09.329Z,1.67
2019-05-30T01:28:42.163Z,3.30
2019-05-30T01:31:11.723Z,1.53
2019-05-30T01:33:43.558Z,2.17
2019-05-30T01:36:14.855Z,1.30
2019-05-30T01:38:43.246Z,1.83
2019-05-30T01:41:11.877Z,1.37
2019-05-30T01:43:40.260Z,1.63
2019-05-30T01:46:11.745Z,1.33
2019-05-30T01:48:40.140Z,1.30
2019-05-30T01:51:08.719Z,1.63
2019-05-30T01:53:42.841Z,1.20
2019-05-30T01:56:11.243Z,1.60
2019-05-30T01:58:39.621Z,1.23
2019-05-30T02:01:22.590Z,1.67
2019-05-30T02:03:41.119Z,1.87
2019-05-30T02:06:10.538Z,1.80
2019-05-30T02:08:40.485Z,1.63
2019-05-30T02:11:11.589Z,1.47
2019-05-30T02:13:43.120Z,1.70
2019-05-30T02:16:13.455Z,1.80
2019-05-30T02:18:46.139Z,2.53
2019-05-30T02:21:15.994Z,1.77
2019-05-30T02:23:47.161Z,1.70
2019-05-30T02:26:15.846Z,2.20
2019-05-30T02:28:46.953Z,1.70
2019-05-30T02:31:15.336Z,2.10
2019-05-30T02:33:43.747Z,1.43
2019-05-30T02:36:15.348Z,1.80
2019-05-30T02:38:46.270Z,3.03
2019-05-30T02:41:21.071Z,1.50
2019-05-30T02:43:52.759Z,1.97
2019-05-30T02:46:22.683Z,1.67
2019-05-30T02:48:59.423Z,2.43
2019-05-30T02:51:26.878Z,1.80
2019-05-30T02:53:57.938Z,1.97
2019-05-30T02:56:29.254Z,1.67
2019-05-30T02:58:58.668Z,1.60
2019-05-30T03:01:27.270Z,1.90
2019-05-30T03:03:55.663Z,2.87
2019-05-30T03:06:26.716Z,1.77
2019-05-30T03:08:59.542Z,1.77
2019-05-30T03:11:30.889Z,1.70
2019-05-30T03:14:10.067Z,2.73
2019-05-30T03:16:37.187Z,1.97
2019-05-30T03:19:08.537Z,1.83
2019-05-30T03:21:40.981Z,2.43
2019-05-30T03:24:13.670Z,1.90
2019-05-30T03:26:44.051Z,2.00
2019-05-30T03:29:16.945Z,1.73
2019-05-30T03:31:54.527Z,2.10
2019-05-30T03:34:28.357Z,2.23
2019-05-30T03:36:54.921Z,2.47
2019-05-30T03:39:24.907Z,2.23
2019-05-30T03:41:53.287Z,1.93
2019-05-30T03:44:27.260Z,2.00
2019-05-30T03:47:01.513Z,1.90
2019-05-30T03:49:32.974Z,1.90
2019-05-30T03:52:06.967Z,2.30
2019-05-30T03:54:39.025Z,2.20
2019-05-30T03:57:20.981Z,2.00
2019-05-30T04:00:18.550Z,2.10
2019-05-30T04:02:58.983Z,2.27
2019-05-30T04:05:31.086Z,2.40
2019-05-30T04:08:02.575Z,2.03
2019-05-30T04:10:35.696Z,2.23
2019-05-30T04:13:11.770Z,2.00
2019-05-30T04:15:42.908Z,2.30
2019-05-30T04:18:12.504Z,1.90
2019-05-30T04:20:44.436Z,2.80
2019-05-30T04:23:14.672Z,2.27
2019-05-30T04:25:46.117Z,2.30
2019-05-30T04:28:16.113Z,2.13
2019-05-30T04:30:44.777Z,2.40
2019-05-30T04:33:26.133Z,2.43
2019-05-30T04:35:48.638Z,2.37
2019-05-30T04:38:21.265Z,3.40
2019-05-30T04:40:53.892Z,2.33
2019-05-30T04:43:22.290Z,2.13
2019-05-30T04:45:50.691Z,1.87
2019-05-30T04:48:21.280Z,1.30
2019-05-30T04:50:52.405Z,1.60
2019-05-30T04:53:24.150Z,1.30
2019-05-30T04:55:54.487Z,1.60
2019-05-30T04:58:24.345Z,1.10
2019-05-30T05:00:53.613Z,1.22
2019-05-30T05:03:42.939Z,1.37
2019-05-30T05:05:55.243Z,1.35
2019-05-30T05:08:23.638Z,1.35
2019-05-30T05:10:52.105Z,1.70
2019-05-30T05:13:20.530Z,1.80
2019-05-30T05:15:51.634Z,2.20
2019-05-30T05:18:21.116Z,1.72
2019-05-30T05:20:49.647Z,1.90
2019-05-30T05:23:21.352Z,2.02
2019-05-30T05:26:00.384Z,1.77
2019-05-30T05:28:24.942Z,2.50
2019-05-30T05:30:53.342Z,1.80
2019-05-30T05:33:24.770Z,2.33
2019-05-30T05:35:54.918Z,1.90
2019-05-30T05:38:24.467Z,2.50
2019-05-30T05:40:54.377Z,2.20
2019-05-30T05:43:25.349Z,2.00
2019-05-30T05:45:56.297Z,2.65
2019-05-30T05:48:30.921Z,2.58
2019-05-30T05:51:02.807Z,2.80
2019-05-30T05:53:35.407Z,3.05
2019-05-30T05:56:06.774Z,2.55
2019-05-30T05:58:40.923Z,2.45
2019-05-30T06:01:10.111Z,2.65
2019-05-30T06:03:41.162Z,2.58
2019-05-30T06:06:15.013Z,2.87
2019-05-30T06:08:46.673Z,2.52
2019-05-30T06:11:18.672Z,3.00
2019-05-30T06:13:50.303Z,2.27
2019-05-30T06:16:22.012Z,2.80
2019-05-30T06:18:50.490Z,3.17
2019-05-30T06:21:21.781Z,2.70
2019-05-30T06:23:51.721Z,2.90
2019-05-30T06:26:24.186Z,2.75
2019-05-30T06:28:56.011Z,2.83
2019-05-30T06:31:27.196Z,2.90
2019-05-30T06:33:57.220Z,2.83
2019-05-30T06:36:29.311Z,3.25
2019-05-30T06:39:02.139Z,2.55
2019-05-30T06:41:30.553Z,2.95
2019-05-30T06:44:00.583Z,3.10
2019-05-30T06:46:31.063Z,3.02
2019-05-30T06:49:03.806Z,2.27
2019-05-30T06:51:32.202Z,2.62
2019-05-30T06:54:10.047Z,3.00
2019-05-30T06:56:44.570Z,2.75
2019-05-30T06:59:14.142Z,3.02
2019-05-30T07:01:46.685Z,4.10
2019-05-30T07:04:18.548Z,2.70
2019-05-30T07:06:48.345Z,2.42
2019-05-30T07:09:18.277Z,3.80
2019-05-30T07:11:52.418Z,3.52
2019-05-30T07:14:20.803Z,3.08
2019-05-30T07:16:50.494Z,3.17
2019-05-30T07:19:19.142Z,3.12
2019-05-30T07:21:50.496Z,3.20
2019-05-30T07:24:21.809Z,3.00
2019-05-30T07:26:53.286Z,3.00
2019-05-30T07:29:25.819Z,2.30
2019-05-30T07:31:54.968Z,2.90
2019-05-30T07:34:30.191Z,2.58
2019-05-30T07:36:59.725Z,2.20
2019-05-30T07:39:32.794Z,2.15
2019-05-30T07:42:06.450Z,2.40
2019-05-30T07:44:35.011Z,2.20
2019-05-30T07:47:06.130Z,2.30
2019-05-30T07:49:36.955Z,2.22
2019-05-30T07:52:09.337Z,2.08
2019-05-30T07:54:43.417Z,1.55
2019-05-30T07:57:14.778Z,1.52
2019-05-30T07:59:45.862Z,1.80
2019-05-30T08:02:14.506Z,2.17
2019-05-30T08:04:46.217Z,2.05
2019-05-30T08:07:13.089Z,2.67
2019-05-30T08:09:41.481Z,1.72
2019-05-30T08:12:10.671Z,2.08
2019-05-30T08:14:41.740Z,1.80
2019-05-30T08:17:10.147Z,2.20
2019-05-30T08:19:40.306Z,2.10
2019-05-30T08:22:10.163Z,1.98
2019-05-30T08:24:38.938Z,2.15
2019-05-30T08:27:11.753Z,1.60
2019-05-30T08:29:44.331Z,2.17
2019-05-30T08:32:13.896Z,2.15
2019-05-30T08:34:45.491Z,1.92
2019-05-30T08:37:13.885Z,1.80
2019-05-30T08:39:46.199Z,1.85
2019-05-30T08:42:16.521Z,1.95
2019-05-30T08:44:47.705Z,2.12
2019-05-30T08:47:16.108Z,1.75
2019-05-30T08:49:44.750Z,1.80
2019-05-30T08:52:14.970Z,1.75
2019-05-30T08:54:43.317Z,1.87
2019-05-30T08:57:15.197Z,2.00
2019-05-30T08:59:44.871Z,1.57
2019-05-30T09:02:13.735Z,1.47
2019-05-30T09:04:42.485Z,2.10
2019-05-30T09:07:13.634Z,2.10
2019-05-30T09:09:44.961Z,1.52
2019-05-30T09:12:17.077Z,1.82
2019-05-30T09:14:48.437Z,1.65
2019-05-30T09:17:19.589Z,1.87
2019-05-30T09:19:50.999Z,1.90
2019-05-30T09:22:19.401Z,1.62
2019-05-30T09:24:48.171Z,1.60
2019-05-30T09:27:20.590Z,1.57
2019-05-30T09:29:57.701Z,1.90
2019-05-30T09:32:32.334Z,2.02
2019-05-30T09:35:00.732Z,1.70
2019-05-30T09:37:33.417Z,1.47
2019-05-30T09:40:17.440Z,1.75
2019-05-30T09:42:53.328Z,1.60
2019-05-30T09:45:23.858Z,1.90
2019-05-30T09:47:54.957Z,1.98
2019-05-30T09:50:26.366Z,1.90
2019-05-30T09:52:54.740Z,1.90
2019-05-30T09:55:24.344Z,1.55
2019-05-30T09:57:57.582Z,1.52
2019-05-30T10:00:29.962Z,1.98
2019-05-30T10:02:59.881Z,1.80
2019-05-30T10:05:28.288Z,1.50
2019-05-30T10:07:56.672Z,1.72
2019-05-30T10:10:27.265Z,2.00
2019-05-30T10:12:58.379Z,1.60
2019-05-30T10:15:32.764Z,1.60
2019-05-30T10:18:06.930Z,2.02
2019-05-30T10:20:37.146Z,1.85
2019-05-30T10:23:08.471Z,1.80
2019-05-30T10:25:39.693Z,5.17
2019-05-30T10:28:09.441Z,1.87
2019-05-30T10:30:40.486Z,1.75
2019-05-30T10:33:08.877Z,1.50
2019-05-30T10:35:38.385Z,1.02
2019-05-30T10:38:12.590Z,1.02
2019-05-30T10:40:43.951Z,1.27
2019-05-30T10:43:15.461Z,0.70
2019-05-30T10:45:49.588Z,0.50
2019-05-30T10:48:20.928Z,0.60
2019-05-30T10:50:52.798Z,0.55
2019-05-30T10:53:24.126Z,0.60
2019-05-30T10:55:54.850Z,0.50
2019-05-30T10:58:24.661Z,1.50
2019-05-30T11:00:57.692Z,0.55
2019-05-30T11:03:28.445Z,0.70
2019-05-30T11:06:21.591Z,0.55
2019-05-30T11:08:53.189Z,0.50
2019-05-30T11:11:27.625Z,0.40
2019-05-30T11:14:00.501Z,0.60
2019-05-30T11:16:28.903Z,0.50
2019-05-30T11:18:57.911Z,0.62
2019-05-30T11:21:27.478Z,0.50
2019-05-30T11:23:58.827Z,0.60
2019-05-30T11:26:29.957Z,0.30
2019-05-30T11:29:00.121Z,2.10
2019-05-30T11:31:31.033Z,0.68
2019-05-30T11:34:05.395Z,0.50
2019-05-30T11:36:38.637Z,0.50
2019-05-30T11:39:08.564Z,0.50
2019-05-30T11:41:36.958Z,0.40
2019-05-30T11:44:11.154Z,0.40
2019-05-30T11:46:41.078Z,0.40
2019-05-30T11:49:12.781Z,0.40
2019-05-30T11:51:43.970Z,0.35
2019-05-30T11:54:15.142Z,0.40
2019-05-30T11:56:46.522Z,0.40
2019-05-30T11:59:17.950Z,0.47
2019-05-30T12:01:50.235Z,0.35
2019-05-30T12:04:21.581Z,0.40
2019-05-30T12:06:51.556Z,0.40
2019-05-30T12:09:24.373Z,0.57
2019-05-30T12:11:57.507Z,0.55
2019-05-30T12:14:33.276Z,0.33
2019-05-30T12:17:01.652Z,0.30
2019-05-30T12:19:30.601Z,1.65
2019-05-30T12:21:59.892Z,0.50
2019-05-30T12:24:32.281Z,0.72
2019-05-30T12:27:03.890Z,0.40
2019-05-30T12:29:32.548Z,0.45
2019-05-30T12:32:08.396Z,0.33
2019-05-30T12:34:41.966Z,0.20
2019-05-30T12:37:13.588Z,0.30
2019-05-30T12:39:41.968Z,0.40
2019-05-30T12:42:13.345Z,0.30
2019-05-30T12:44:41.731Z,0.50
2019-05-30T12:47:12.118Z,0.40
2019-05-30T12:49:48.794Z,0.40
2019-05-30T12:52:20.283Z,0.30
2019-05-30T12:54:51.342Z,0.40
2019-05-30T12:57:19.762Z,0.30
2019-05-30T12:59:51.045Z,0.40
2019-05-30T13:02:22.109Z,0.47
2019-05-30T13:04:51.886Z,0.40
2019-05-30T13:07:21.091Z,1.35
2019-05-30T13:09:49.721Z,0.57
2019-05-30T13:12:23.369Z,0.50
2019-05-30T13:14:55.480Z,0.40
2019-05-30T13:17:26.898Z,0.50
2019-05-30T13:20:01.442Z,0.50
2019-05-30T13:22:33.218Z,0.40
2019-05-30T13:25:11.671Z,0.42
2019-05-30T13:27:42.715Z,0.82
2019-05-30T13:30:16.650Z,1.30
2019-05-30T13:32:51.266Z,0.45
2019-05-30T13:35:24.238Z,0.47
2019-05-30T13:37:52.875Z,0.35
2019-05-30T13:40:31.449Z,0.40
2019-05-30T13:42:57.762Z,0.40
2019-05-30T13:45:27.525Z,0.60
2019-05-30T13:47:58.208Z,0.37
2019-05-30T13:50:29.577Z,0.50
2019-05-30T13:53:00.969Z,0.30
2019-05-30T13:55:32.349Z,0.40
2019-05-30T13:58:01.537Z,0.50
2019-05-30T14:00:35.647Z,0.85
2019-05-30T14:03:06.235Z,0.42
2019-05-30T14:05:42.560Z,0.65
2019-05-30T14:08:16.471Z,0.50
2019-05-30T14:10:41.405Z,0.40
2019-05-30T14:13:11.185Z,0.40
2019-05-30T14:15:43.063Z,0.50
2019-05-30T14:18:14.562Z,0.50
2019-05-30T14:20:45.648Z,0.42
2019-05-30T14:23:20.045Z,0.60
2019-05-30T14:25:53.051Z,1.32
2019-05-30T14:28:24.337Z,0.40
2019-05-30T14:30:55.722Z,0.50
2019-05-30T14:33:31.567Z,0.62
2019-05-30T14:36:05.981Z,0.50
2019-05-30T14:38:35.394Z,0.65
2019-05-30T14:41:07.006Z,1.00
2019-05-30T14:43:40.925Z,0.60
2019-05-30T14:46:10.347Z,1.45
2019-05-30T14:48:39.903Z,2.12
2019-05-30T14:51:11.143Z,0.62
2019-05-30T14:53:41.189Z,1.05
2019-05-30T14:56:09.585Z,0.50
2019-05-30T14:58:37.985Z,2.05
2019-05-30T15:01:09.414Z,0.65
2019-05-30T15:03:38.059Z,1.30
2019-05-30T15:06:15.360Z,0.50
2019-05-30T15:08:42.380Z,0.90
2019-05-30T15:11:11.733Z,1.20
2019-05-30T15:13:43.082Z,0.60
2019-05-30T15:16:14.379Z,0.45
2019-05-30T15:18:45.976Z,1.15
2019-05-30T15:21:17.658Z,0.50
2019-05-30T15:23:48.773Z,0.93
2019-05-30T15:26:19.933Z,0.65
2019-05-30T15:28:55.489Z,0.65
2019-05-30T15:31:23.829Z,0.75
2019-05-30T15:33:52.221Z,1.10
2019-05-30T15:36:24.359Z,0.65
2019-05-30T15:38:54.637Z,1.95
2019-05-30T15:41:24.217Z,0.60
2019-05-30T15:43:56.325Z,0.55
2019-05-30T15:46:26.337Z,0.53
2019-05-30T15:48:58.118Z,0.50
2019-05-30T15:51:28.151Z,0.60
2019-05-30T15:53:59.234Z,0.47
2019-05-30T15:56:30.512Z,0.70
2019-05-30T15:58:59.942Z,0.70
2019-05-30T16:01:30.025Z,0.50
2019-05-30T16:04:02.649Z,0.53
2019-05-30T16:06:35.610Z,0.50
2019-05-30T16:09:06.397Z,0.70
2019-05-30T16:11:36.939Z,0.55
2019-05-30T16:14:08.495Z,0.55
2019-05-30T16:16:40.658Z,0.95
2019-05-30T16:19:20.167Z,0.50
2019-05-30T16:21:46.725Z,0.53
2019-05-30T16:24:19.226Z,0.60
2019-05-30T16:26:50.041Z,0.65
2019-05-30T16:29:21.961Z,0.50
2019-05-30T16:31:50.412Z,0.42
2019-05-30T16:34:22.268Z,0.50
2019-05-30T16:36:51.053Z,0.47
2019-05-30T16:39:22.558Z,1.00
2019-05-30T16:41:53.906Z,0.45
2019-05-30T16:44:23.851Z,0.70
2019-05-30T16:46:55.266Z,0.60
2019-05-30T16:49:26.918Z,1.85
2019-05-30T16:52:02.698Z,0.60
2019-05-30T16:54:33.748Z,0.50
2019-05-30T16:57:06.866Z,0.57
2019-05-30T16:59:38.174Z,1.52
2019-05-30T17:02:06.813Z,0.50
2019-05-30T17:04:40.633Z,0.93
2019-05-30T17:07:15.000Z,0.72
2019-05-30T17:09:44.729Z,0.78
2019-05-30T17:12:15.330Z,0.85
2019-05-30T17:14:46.493Z,0.45
2019-05-30T17:17:16.136Z,0.53
2019-05-30T17:19:45.002Z,0.60
2019-05-30T17:22:13.401Z,0.80
2019-05-30T17:24:44.553Z,0.95
2019-05-30T17:27:17.308Z,0.42
2019-05-30T17:29:45.781Z,0.40
2019-05-30T17:32:15.842Z,0.30
2019-05-30T17:34:44.482Z,0.40
2019-05-30T17:37:16.489Z,0.40
2019-05-30T17:39:49.372Z,0.40
2019-05-30T17:42:18.647Z,0.40
2019-05-30T17:44:50.093Z,0.50
2019-05-30T17:47:25.430Z,0.72
2019-05-30T17:49:59.797Z,0.50
2019-05-30T17:52:33.821Z,0.40
2019-05-30T17:55:09.845Z,0.70
2019-05-30T17:57:40.943Z,0.70
2019-05-30T18:00:20.411Z,0.57
2019-05-30T18:02:51.522Z,0.57
2019-05-30T18:05:28.861Z,0.62
2019-05-30T18:08:00.209Z,0.60
2019-05-30T18:10:31.253Z,0.50
2019-05-30T18:13:04.002Z,0.57
2019-05-30T18:15:32.516Z,0.50
2019-05-30T18:18:00.946Z,0.70
2019-05-30T18:20:29.423Z,0.60
2019-05-30T18:23:02.170Z,1.70
2019-05-30T18:25:37.897Z,0.60
2019-05-30T18:28:06.494Z,0.70
2019-05-30T18:30:44.794Z,0.95
2019-05-30T18:33:22.127Z,0.50
2019-05-30T18:35:52.487Z,0.50
2019-05-30T18:38:24.257Z,0.63
2019-05-30T18:41:08.143Z,0.70
2019-05-30T18:43:26.827Z,0.57
2019-05-30T18:46:01.913Z,0.60
2019-05-30T18:48:36.887Z,0.50
2019-05-30T18:51:05.270Z,0.60
2019-05-30T18:53:36.785Z,0.98
2019-05-30T18:56:08.599Z,0.57
2019-05-30T18:58:39.914Z,0.77
2019-05-30T19:01:08.297Z,0.70
2019-05-30T19:03:39.613Z,0.55
2019-05-30T19:06:11.194Z,0.60
2019-05-30T19:08:39.599Z,0.70
2019-05-30T19:11:08.458Z,0.57
2019-05-30T19:13:37.995Z,0.40
2019-05-30T19:16:06.726Z,0.50
2019-05-30T19:18:42.089Z,0.60
2019-05-30T19:21:11.917Z,0.73
2019-05-30T19:23:43.321Z,0.50
2019-05-30T19:26:11.754Z,0.60
2019-05-30T19:28:44.013Z,0.50
2019-05-30T19:31:14.147Z,0.70
2019-05-30T19:33:45.241Z,0.50
2019-05-30T19:36:16.597Z,0.57
2019-05-30T19:38:50.634Z,0.50
2019-05-30T19:41:19.010Z,0.80
2019-05-30T19:43:50.222Z,0.63
2019-05-30T19:46:18.623Z,0.63
2019-05-30T19:48:52.713Z,0.70
2019-05-30T19:51:28.787Z,0.70
2019-05-30T19:53:59.826Z,0.60
2019-05-30T19:56:31.261Z,0.93
2019-05-30T19:59:06.991Z,0.70
2019-05-30T20:01:35.835Z,0.90
2019-05-30T20:04:05.491Z,0.97
2019-05-30T20:06:41.166Z,0.70
2019-05-30T20:09:09.553Z,1.57
2019-05-30T20:11:39.709Z,0.90
2019-05-30T20:14:15.425Z,1.30
2019-05-30T20:16:45.361Z,0.90
2019-05-30T20:19:13.897Z,1.00
2019-05-30T20:21:42.293Z,0.87
2019-05-30T20:24:13.733Z,1.00
2019-05-30T20:26:44.840Z,1.60
2019-05-30T20:29:13.292Z,0.87
2019-05-30T20:31:41.761Z,1.03
2019-05-30T20:34:10.145Z,0.90
2019-05-30T20:36:42.646Z,1.07
2019-05-30T20:39:11.107Z,0.93
2019-05-30T20:41:41.235Z,1.27
2019-05-30T20:44:09.675Z,1.10
2019-05-30T20:46:39.018Z,1.23
2019-05-30T20:49:08.207Z,0.80
2019-05-30T20:51:39.747Z,0.80
2019-05-30T20:54:12.485Z,1.00
2019-05-30T20:56:41.472Z,0.83
2019-05-30T20:59:10.639Z,0.90
2019-05-30T21:01:45.939Z,1.23
2019-05-30T21:04:14.777Z,0.90
2019-05-30T21:06:44.801Z,1.00
2019-05-30T21:09:27.960Z,0.93
2019-05-30T21:11:46.375Z,0.80
2019-05-30T21:14:21.043Z,1.03
2019-05-30T21:16:51.348Z,0.97
2019-05-30T21:19:21.264Z,0.70
2019-05-30T21:21:53.952Z,1.10
2019-05-30T21:24:25.253Z,1.13
2019-05-30T21:26:59.730Z,0.80
2019-05-30T21:29:28.147Z,0.60
2019-05-30T21:31:56.630Z,0.70
2019-05-30T21:34:26.880Z,0.97
2019-05-30T21:36:56.769Z,0.67
2019-05-30T21:39:25.146Z,0.80
2019-05-30T21:41:56.474Z,0.80
2019-05-30T21:44:26.392Z,0.70
2019-05-30T21:46:55.027Z,1.10
2019-05-30T21:49:23.442Z,1.40
2019-05-30T21:51:53.354Z,1.20
2019-05-30T21:54:21.982Z,1.00
2019-05-30T21:56:50.425Z,1.00
2019-05-30T21:59:20.493Z,0.83
2019-05-30T22:01:54.127Z,0.80
2019-05-30T22:04:20.294Z,0.87
2019-05-30T22:06:51.073Z,0.90
2019-05-30T22:09:23.450Z,0.90
2019-05-30T22:11:53.064Z,0.90
2019-05-30T22:14:21.412Z,0.93
2019-05-30T22:16:50.230Z,0.90
2019-05-30T22:19:22.665Z,0.87
2019-05-30T22:21:52.210Z,0.90
2019-05-30T22:24:21.153Z,0.90
2019-05-30T22:26:50.686Z,1.17
2019-05-30T22:29:19.658Z,0.97
2019-05-30T22:31:48.604Z,1.23
2019-05-30T22:34:17.498Z,1.10
2019-05-30T22:36:46.769Z,1.00
2019-05-30T22:39:19.457Z,0.83
2019-05-30T22:41:49.998Z,0.90
2019-05-30T22:44:18.849Z,2.13
2019-05-30T22:46:48.070Z,1.07
2019-05-30T22:49:18.037Z,1.20
2019-05-30T22:51:47.116Z,1.30
2019-05-30T22:54:19.302Z,0.90
2019-05-30T22:56:47.678Z,0.80
2019-05-30T22:59:17.481Z,0.97
2019-05-30T23:01:46.873Z,0.73
2019-05-30T23:04:15.985Z,0.93
2019-05-30T23:06:48.276Z,0.90
2019-05-30T23:09:20.310Z,1.00
2019-05-30T23:11:49.689Z,2.07
2019-05-30T23:14:19.443Z,0.97
2019-05-30T23:16:52.256Z,1.00
2019-05-30T23:19:20.739Z,1.30
2019-05-30T23:21:53.267Z,1.10
2019-05-30T23:24:23.011Z,1.40
2019-05-30T23:26:54.085Z,1.20
2019-05-30T23:29:22.484Z,1.07
2019-05-30T23:31:51.930Z,1.17
2019-05-30T23:34:21.052Z,0.90
2019-05-30T23:36:50.491Z,1.00
2019-05-30T23:39:28.724Z,1.13
2019-05-30T23:41:57.289Z,1.37
2019-05-30T23:44:28.668Z,1.07
2019-05-30T23:47:02.861Z,1.00
2019-05-30T23:49:31.261Z,0.90
2019-05-30T23:52:01.290Z,1.03
2019-05-30T23:54:29.888Z,1.17
2019-05-30T23:56:58.627Z,1.17
2019-05-30T23:59:29.961Z,0.90
